Time;durP1;ratioP1;P1;durP2;ratioP2;P2;SDS_P1;SDS_P2;PMS_P1;PMS_P2;Temp;Humidity;BMP_temperature;BMP_pressure;BME280_temperature;BME280_humidity;BME280_pressure;Samples;Min_cycle;Max_cycle;Signal;HPM_P1;HPM_P2
2022/03/06 00:01:39;;;;;;;12.57;4.82;;;-2.30;99.90;;;;;;5036451;28;20036;-66
2022/03/06 00:04:04;;;;;;;12.10;3.88;;;-2.40;99.90;;;;;;5038260;28;20021;-66
2022/03/06 00:06:30;;;;;;;18.98;5.00;;;-2.30;99.90;;;;;;5038668;28;20036;-66
2022/03/06 00:08:56;;;;;;;14.02;3.78;;;-2.30;99.90;;;;;;5037042;28;20032;-66
2022/03/06 00:11:21;;;;;;;13.30;4.55;;;-2.40;99.90;;;;;;5041917;28;20029;-66
2022/03/06 00:13:47;;;;;;;11.20;4.28;;;-2.40;99.90;;;;;;5039998;28;20106;-66
2022/03/06 00:16:13;;;;;;;14.20;5.40;;;-2.40;99.90;;;;;;5041788;28;20521;-66
2022/03/06 00:18:38;;;;;;;13.52;6.63;;;-2.50;99.90;;;;;;5041924;28;20634;-66
2022/03/06 00:21:05;;;;;;;10.93;4.13;;;-2.60;99.90;;;;;;5042395;28;20112;-66
2022/03/06 00:23:31;;;;;;;13.93;4.60;;;-2.60;99.90;;;;;;5044376;28;20382;-66
2022/03/06 00:25:56;;;;;;;13.00;4.72;;;-2.70;99.90;;;;;;5045801;28;20287;-66
2022/03/06 00:28:22;;;;;;;10.15;4.57;;;-2.60;99.90;;;;;;5034064;28;20083;-66
2022/03/06 00:30:48;;;;;;;9.07;3.25;;;-2.60;99.90;;;;;;5043939;28;20037;-66
2022/03/06 00:33:13;;;;;;;9.00;4.00;;;-2.70;99.90;;;;;;5044231;28;20033;-66
2022/03/06 00:35:39;;;;;;;10.93;4.40;;;-2.60;99.90;;;;;;5033178;28;20025;-66
2022/03/06 00:38:05;;;;;;;10.85;4.63;;;-2.70;99.90;;;;;;5038979;28;20402;-66
2022/03/06 00:40:32;;;;;;;17.10;4.82;;;-2.60;99.90;;;;;;5042421;28;20505;-66
2022/03/06 00:42:57;;;;;;;8.70;4.13;;;-2.50;99.90;;;;;;5040862;28;20118;-66
2022/03/06 00:45:23;;;;;;;12.35;4.25;;;-2.50;99.90;;;;;;5037268;28;20524;-66
2022/03/06 00:47:50;;;;;;;11.07;3.55;;;-2.60;99.90;;;;;;5042035;28;20028;-66
2022/03/06 00:50:16;;;;;;;16.48;5.70;;;-2.50;99.90;;;;;;5042523;28;20256;-66
2022/03/06 00:52:41;;;;;;;13.07;3.92;;;-2.60;99.90;;;;;;5043922;28;20021;-66
2022/03/06 00:55:08;;;;;;;9.80;4.45;;;-2.60;99.90;;;;;;5043646;28;20504;-66
2022/03/06 00:57:34;;;;;;;6.75;3.72;;;-2.70;99.90;;;;;;5038352;28;20183;-66
2022/03/06 00:59:59;;;;;;;6.35;3.13;;;-2.70;99.90;;;;;;5042309;28;20083;-66
2022/03/06 01:02:26;;;;;;;9.27;3.55;;;-2.60;99.90;;;;;;5040204;28;20033;-66
2022/03/06 01:04:52;;;;;;;8.10;3.47;;;-2.70;99.90;;;;;;5040863;28;20107;-66
2022/03/06 01:07:17;;;;;;;17.70;4.25;;;-2.60;99.90;;;;;;5037282;28;20088;-66
2022/03/06 01:09:43;;;;;;;9.45;3.58;;;-2.60;99.90;;;;;;5041685;28;20051;-66
2022/03/06 01:12:09;;;;;;;7.60;3.75;;;-2.60;99.90;;;;;;5037824;28;20036;-66
2022/03/06 01:14:35;;;;;;;15.40;4.68;;;-2.50;99.90;;;;;;5048321;28;20127;-66
2022/03/06 01:17:00;;;;;;;13.13;6.00;;;-2.70;99.90;;;;;;5043781;28;20115;-66
2022/03/06 01:19:26;;;;;;;7.00;5.05;;;-2.80;99.90;;;;;;5043465;28;20033;-66
2022/03/06 01:21:52;;;;;;;7.85;3.78;;;-2.80;99.90;;;;;;5040448;28;20028;-66
2022/03/06 01:24:17;;;;;;;10.00;4.72;;;-2.80;99.90;;;;;;5037390;28;20128;-66
2022/03/06 01:26:43;;;;;;;8.88;3.88;;;-2.80;99.90;;;;;;5048438;28;20025;-66
2022/03/06 01:29:09;;;;;;;11.93;4.32;;;-2.80;99.90;;;;;;5054406;28;20143;-66
2022/03/06 01:31:34;;;;;;;8.20;4.72;;;-2.90;99.90;;;;;;5039890;28;20025;-66
2022/03/06 01:34:02;;;;;;;7.18;2.92;;;-3.00;99.90;;;;;;5055663;28;20107;-66
2022/03/06 01:36:28;;;;;;;12.50;2.72;;;-3.10;99.90;;;;;;5053360;28;20037;-66
2022/03/06 01:38:54;;;;;;;10.50;3.67;;;-3.10;99.90;;;;;;5048712;28;20067;-66
2022/03/06 01:41:19;;;;;;;12.82;5.43;;;-3.00;99.90;;;;;;5043040;28;20033;-67
2022/03/06 01:43:45;;;;;;;12.68;2.83;;;-3.00;99.90;;;;;;5046269;28;20116;-67
2022/03/06 01:46:13;;;;;;;9.10;3.58;;;-2.90;99.90;;;;;;5043181;28;20025;-66
2022/03/06 01:48:38;;;;;;;9.73;4.03;;;-3.00;99.90;;;;;;5044244;28;20037;-66
2022/03/06 01:51:04;;;;;;;11.18;4.82;;;-2.80;99.90;;;;;;5046633;28;20175;-66
2022/03/06 01:53:29;;;;;;;5.13;3.05;;;-2.90;99.90;;;;;;5040499;28;20036;-66
2022/03/06 01:55:55;;;;;;;8.48;4.70;;;-2.80;99.90;;;;;;5046135;28;20086;-66
2022/03/06 01:58:21;;;;;;;10.57;4.70;;;-2.90;99.90;;;;;;5038616;28;20757;-66
2022/03/06 02:00:49;;;;;;;7.40;3.15;;;-3.00;99.90;;;;;;5048431;28;20020;-66
2022/03/06 02:03:16;;;;;;;12.35;5.18;;;-3.00;99.90;;;;;;5039113;28;20037;-66
2022/03/06 02:05:43;;;;;;;13.48;5.10;;;-2.70;99.90;;;;;;5048172;28;20025;-66
2022/03/06 02:08:08;;;;;;;11.70;3.70;;;-2.60;99.90;;;;;;5043658;28;20401;-66
2022/03/06 02:10:35;;;;;;;13.27;4.55;;;-2.70;99.90;;;;;;5042145;28;20033;-66
2022/03/06 02:13:00;;;;;;;6.68;3.08;;;-2.70;99.90;;;;;;5044690;28;20014;-66
2022/03/06 02:15:26;;;;;;;8.48;3.45;;;-2.70;99.90;;;;;;5044454;28;20355;-66
2022/03/06 02:17:52;;;;;;;5.95;2.95;;;-2.60;99.90;;;;;;5041605;28;20131;-66
2022/03/06 02:20:23;;;;;;;7.60;3.05;;;-2.50;99.90;;;;;;5045633;28;20429;-66
2022/03/06 02:22:51;;;;;;;9.00;3.85;;;-2.40;99.90;;;;;;5046229;28;20441;-66
2022/03/06 02:25:18;;;;;;;6.45;3.40;;;-2.50;99.90;;;;;;5039070;28;20029;-66
2022/03/06 02:27:45;;;;;;;6.57;4.00;;;-2.40;99.90;;;;;;5043299;28;20021;-66
2022/03/06 02:30:15;;;;;;;9.45;3.42;;;-2.40;99.90;;;;;;5042239;28;20041;-66
2022/03/06 02:32:43;;;;;;;10.77;4.07;;;-2.30;99.90;;;;;;5045681;28;20098;-66
2022/03/06 02:35:09;;;;;;;8.77;4.10;;;-2.30;99.90;;;;;;5043772;28;20099;-66
2022/03/06 02:37:35;;;;;;;7.68;3.88;;;-2.40;99.90;;;;;;5048033;28;20055;-67
2022/03/06 02:40:03;;;;;;;5.40;2.50;;;-2.30;99.90;;;;;;5041665;28;20041;-66
2022/03/06 02:42:33;;;;;;;5.88;2.50;;;-2.40;99.90;;;;;;5039889;28;20420;-66
2022/03/06 02:45:04;;;;;;;6.32;2.97;;;-2.20;99.90;;;;;;5045494;28;20032;-66
2022/03/06 02:47:29;;;;;;;11.15;3.45;;;-2.30;99.90;;;;;;5046871;28;20102;-66
2022/03/06 02:49:55;;;;;;;7.60;3.35;;;-2.30;99.90;;;;;;5043047;28;20049;-66
2022/03/06 02:52:21;;;;;;;6.22;2.72;;;-2.20;99.90;;;;;;5048643;28;20024;-66
2022/03/06 02:54:46;;;;;;;8.43;3.70;;;-2.30;99.90;;;;;;5043902;28;20029;-66
2022/03/06 02:57:13;;;;;;;11.80;3.97;;;-2.40;99.90;;;;;;5050820;28;20029;-66
2022/03/06 02:59:40;;;;;;;8.38;3.83;;;-2.40;99.90;;;;;;5047680;28;20530;-66
2022/03/06 03:02:06;;;;;;;14.10;3.53;;;-2.00;99.90;;;;;;5047335;28;20029;-66
2022/03/06 03:04:33;;;;;;;7.38;3.95;;;-1.80;99.90;;;;;;5045311;28;20025;-66
2022/03/06 03:06:59;;;;;;;7.05;2.95;;;-1.70;99.90;;;;;;5040749;28;20051;-66
2022/03/06 03:09:25;;;;;;;8.77;3.08;;;-1.80;99.90;;;;;;5048781;28;20035;-67
2022/03/06 03:11:52;;;;;;;6.25;3.10;;;-1.60;99.90;;;;;;5039777;28;20548;-66
2022/03/06 03:14:18;;;;;;;8.70;4.07;;;-1.40;99.90;;;;;;5041805;28;20102;-66
2022/03/06 03:16:44;;;;;;;7.07;3.95;;;-1.30;99.90;;;;;;5040298;28;20072;-66
2022/03/06 03:19:09;;;;;;;6.05;3.40;;;-1.30;99.90;;;;;;5038495;28;20029;-66
2022/03/06 03:21:35;;;;;;;10.98;4.13;;;-1.30;99.90;;;;;;5045880;28;20098;-66
2022/03/06 03:24:01;;;;;;;10.73;4.30;;;-1.40;99.90;;;;;;5044986;28;20555;-66
2022/03/06 03:26:27;;;;;;;9.75;2.92;;;-1.50;99.90;;;;;;5045929;28;20108;-66
2022/03/06 03:28:52;;;;;;;12.57;3.75;;;-1.50;99.90;;;;;;5042691;28;20044;-66
2022/03/06 03:31:18;;;;;;;8.30;2.75;;;-1.60;99.90;;;;;;5051084;28;20049;-66
2022/03/06 03:33:44;;;;;;;11.95;4.18;;;-1.60;99.90;;;;;;5043630;28;20034;-66
2022/03/06 03:36:11;;;;;;;9.57;4.20;;;-1.40;99.90;;;;;;5047759;28;20096;-66
2022/03/06 03:38:38;;;;;;;6.07;2.45;;;-1.40;99.90;;;;;;5044619;28;20151;-66
2022/03/06 03:41:04;;;;;;;5.50;2.47;;;-1.30;99.90;;;;;;5043560;28;20128;-66
2022/03/06 03:43:30;;;;;;;9.35;4.00;;;-1.30;99.90;;;;;;5052747;28;20116;-66
2022/03/06 03:45:57;;;;;;;6.82;3.67;;;-1.30;99.90;;;;;;5051428;28;20029;-66
2022/03/06 03:48:25;;;;;;;12.43;4.00;;;-1.30;99.90;;;;;;5041614;28;20052;-66
2022/03/06 03:50:52;;;;;;;7.63;3.72;;;-1.30;99.90;;;;;;5051454;28;20445;-66
2022/03/06 03:53:18;;;;;;;7.60;3.97;;;-1.20;99.90;;;;;;5045945;28;20626;-66
2022/03/06 03:55:43;;;;;;;7.05;3.42;;;-1.30;99.90;;;;;;5047002;28;20025;-66
2022/03/06 03:58:09;;;;;;;7.82;4.25;;;-1.30;99.90;;;;;;5039918;28;20045;-66
2022/03/06 04:00:35;;;;;;;8.82;3.75;;;-1.20;99.90;;;;;;5045100;28;20037;-66
2022/03/06 04:03:00;;;;;;;9.75;3.85;;;-1.30;99.90;;;;;;5048123;28;20061;-66
2022/03/06 04:05:26;;;;;;;10.13;3.33;;;-1.20;99.90;;;;;;5042798;28;20041;-66
2022/03/06 04:07:51;;;;;;;13.65;4.78;;;-1.00;99.90;;;;;;5043660;28;20033;-66
2022/03/06 04:10:17;;;;;;;8.50;3.55;;;-0.90;99.90;;;;;;5046554;28;20493;-66
2022/03/06 04:12:42;;;;;;;9.55;3.35;;;-1.00;99.90;;;;;;5048796;28;20198;-66
2022/03/06 04:15:08;;;;;;;13.35;3.80;;;-1.00;99.90;;;;;;5052965;28;20378;-66
2022/03/06 04:17:34;;;;;;;7.43;3.38;;;-0.80;99.90;;;;;;5048216;28;20052;-66
2022/03/06 04:19:59;;;;;;;9.88;3.60;;;-0.90;99.90;;;;;;5053303;28;20090;-66
2022/03/06 04:22:25;;;;;;;7.53;3.53;;;-0.90;99.90;;;;;;5039690;28;20041;-66
2022/03/06 04:24:50;;;;;;;13.73;4.43;;;-1.00;99.90;;;;;;5047335;28;20091;-66
2022/03/06 04:27:16;;;;;;;11.43;3.95;;;-0.90;99.90;;;;;;5041118;28;20057;-66
2022/03/06 04:29:42;;;;;;;13.90;4.70;;;-0.80;99.90;;;;;;5047587;28;20049;-66
2022/03/06 04:32:07;;;;;;;12.82;5.03;;;-0.90;99.90;;;;;;5047132;28;20637;-66
2022/03/06 04:34:33;;;;;;;12.05;4.85;;;-0.80;99.90;;;;;;5049525;28;20103;-66
2022/03/06 04:36:58;;;;;;;7.90;3.67;;;-0.90;99.90;;;;;;5052321;28;20037;-66
2022/03/06 04:39:24;;;;;;;5.00;2.72;;;-0.80;99.90;;;;;;5046810;28;20079;-66
2022/03/06 04:41:49;;;;;;;11.07;4.38;;;-0.70;99.90;;;;;;5046593;28;20550;-66
2022/03/06 04:44:15;;;;;;;7.75;3.42;;;-0.70;99.90;;;;;;5048289;28;20035;-66
2022/03/06 04:46:41;;;;;;;13.25;4.05;;;-0.80;99.90;;;;;;5044085;28;20021;-66
2022/03/06 04:49:06;;;;;;;7.90;3.85;;;-0.90;99.90;;;;;;5045708;28;20591;-66
2022/03/06 04:51:32;;;;;;;9.07;3.90;;;-0.80;99.90;;;;;;5047494;28;20048;-66
2022/03/06 04:53:58;;;;;;;9.65;4.03;;;-0.80;99.90;;;;;;5047863;28;20032;-66
2022/03/06 04:56:24;;;;;;;11.77;4.70;;;-1.00;99.90;;;;;;5047062;28;20037;-66
2022/03/06 04:58:50;;;;;;;11.95;4.25;;;-1.10;99.90;;;;;;5044070;28;20033;-66
2022/03/06 05:01:16;;;;;;;10.82;3.92;;;-1.10;99.90;;;;;;5050204;28;20040;-66
2022/03/06 05:03:41;;;;;;;11.85;3.88;;;-1.10;99.90;;;;;;5046257;28;20063;-66
2022/03/06 05:06:07;;;;;;;4.38;2.80;;;-1.10;99.90;;;;;;5049228;28;20029;-66
2022/03/06 05:08:32;;;;;;;20.42;4.05;;;-1.20;99.90;;;;;;5048984;28;20033;-66
2022/03/06 05:10:58;;;;;;;8.93;4.45;;;-1.30;99.90;;;;;;5042211;28;20044;-66
2022/03/06 05:13:24;;;;;;;8.18;4.20;;;-1.20;99.90;;;;;;5042481;28;20039;-66
2022/03/06 05:15:50;;;;;;;12.98;4.78;;;-1.30;99.90;;;;;;5044019;28;20441;-66
2022/03/06 05:18:16;;;;;;;11.63;5.00;;;-1.20;99.90;;;;;;5042195;28;20033;-66
2022/03/06 05:20:42;;;;;;;10.45;5.22;;;-1.30;99.90;;;;;;5046243;28;20047;-67
2022/03/06 05:23:07;;;;;;;8.98;4.25;;;-1.40;99.90;;;;;;5049416;28;20035;-66
2022/03/06 05:25:33;;;;;;;9.55;3.83;;;-1.40;99.90;;;;;;5049638;28;20029;-66
2022/03/06 05:27:59;;;;;;;10.85;3.65;;;-1.40;99.90;;;;;;5044198;28;20087;-66
2022/03/06 05:30:25;;;;;;;13.45;4.05;;;-1.40;99.90;;;;;;5056006;28;20097;-66
2022/03/06 05:32:50;;;;;;;8.40;3.67;;;-1.40;99.90;;;;;;5047909;28;20035;-66
2022/03/06 05:35:16;;;;;;;8.93;3.47;;;-1.50;99.90;;;;;;5047354;28;20031;-66
2022/03/06 05:37:42;;;;;;;6.78;3.40;;;-1.80;99.90;;;;;;5043712;28;20415;-66
2022/03/06 05:40:09;;;;;;;14.52;4.05;;;-1.90;99.90;;;;;;5043149;28;20040;-66
2022/03/06 05:42:35;;;;;;;9.13;3.78;;;-2.10;99.90;;;;;;5050865;28;20420;-66
2022/03/06 05:45:01;;;;;;;10.75;4.43;;;-2.20;99.90;;;;;;5042267;28;20020;-66
2022/03/06 05:47:27;;;;;;;8.48;3.60;;;-2.30;99.90;;;;;;5044339;28;20419;-66
2022/03/06 05:49:52;;;;;;;5.30;2.67;;;-2.20;99.90;;;;;;5039580;28;20028;-66
2022/03/06 05:52:18;;;;;;;8.40;2.65;;;-2.10;99.90;;;;;;5048737;28;20028;-66
2022/03/06 05:54:43;;;;;;;8.15;4.03;;;-2.10;99.90;;;;;;5045400;28;20116;-66
2022/03/06 05:57:09;;;;;;;8.30;3.08;;;-2.10;99.90;;;;;;5044918;28;20485;-66
2022/03/06 05:59:35;;;;;;;7.82;2.88;;;-2.20;99.90;;;;;;5038891;28;20829;-66
2022/03/06 06:02:01;;;;;;;8.65;3.20;;;-2.40;99.90;;;;;;5042932;28;20041;-66
2022/03/06 06:04:26;;;;;;;6.97;3.05;;;-2.60;99.90;;;;;;5042048;28;20025;-66
2022/03/06 06:06:52;;;;;;;9.13;4.20;;;-2.70;99.90;;;;;;5045260;28;20033;-66
2022/03/06 06:09:18;;;;;;;13.07;4.22;;;-2.80;99.90;;;;;;5043290;28;20120;-66
2022/03/06 06:11:43;;;;;;;12.98;4.20;;;-2.80;99.90;;;;;;5039240;28;20389;-66
2022/03/06 06:14:09;;;;;;;7.50;3.00;;;-2.80;99.90;;;;;;5043338;28;20044;-66
2022/03/06 06:16:35;;;;;;;9.27;3.78;;;-2.80;99.90;;;;;;5045971;28;20051;-66
2022/03/06 06:19:00;;;;;;;6.97;3.55;;;-2.90;99.90;;;;;;5042571;28;20033;-66
2022/03/06 06:21:26;;;;;;;7.65;3.13;;;-2.90;99.90;;;;;;5046397;28;20056;-66
2022/03/06 06:23:52;;;;;;;5.32;2.92;;;-2.90;99.90;;;;;;5044900;28;20123;-66
2022/03/06 06:26:18;;;;;;;10.95;3.95;;;-2.80;99.90;;;;;;5041658;28;20029;-66
2022/03/06 06:28:43;;;;;;;7.30;2.67;;;-2.90;99.90;;;;;;5045316;28;20044;-66
2022/03/06 06:31:09;;;;;;;12.45;4.22;;;-2.90;99.90;;;;;;5041949;28;20397;-66
2022/03/06 06:33:35;;;;;;;11.70;2.90;;;-2.90;99.90;;;;;;5042903;28;20040;-66
2022/03/06 06:36:02;;;;;;;6.60;2.97;;;-2.90;99.90;;;;;;5047759;28;20029;-66
2022/03/06 06:38:28;;;;;;;14.52;3.92;;;-2.90;99.90;;;;;;5041189;28;20032;-66
2022/03/06 06:40:54;;;;;;;8.82;4.68;;;-2.80;99.90;;;;;;5042136;28;20053;-66
2022/03/06 06:43:20;;;;;;;13.63;5.32;;;-2.80;99.90;;;;;;5041390;28;20562;-68
2022/03/06 06:45:46;;;;;;;10.88;4.95;;;-2.70;99.90;;;;;;5047915;28;20033;-66
2022/03/06 06:48:12;;;;;;;7.78;3.85;;;-2.80;99.90;;;;;;5046525;28;20025;-67
2022/03/06 06:50:38;;;;;;;7.30;3.83;;;-2.60;99.90;;;;;;5045152;28;20028;-67
2022/03/06 06:53:03;;;;;;;10.55;5.18;;;-2.50;99.90;;;;;;5046983;28;20110;-67
2022/03/06 06:55:29;;;;;;;6.90;2.95;;;-2.50;99.90;;;;;;5041900;28;20171;-67
2022/03/06 06:57:55;;;;;;;10.35;4.10;;;-2.40;99.90;;;;;;5051414;28;20080;-67
2022/03/06 07:00:21;;;;;;;6.72;3.35;;;-2.40;99.90;;;;;;5047224;28;20033;-67
2022/03/06 07:02:46;;;;;;;8.23;3.92;;;-2.30;99.90;;;;;;5047730;28;20377;-67
2022/03/06 07:05:13;;;;;;;8.65;4.55;;;-2.20;99.90;;;;;;5050026;28;20027;-67
2022/03/06 07:07:39;;;;;;;11.30;4.05;;;-2.10;99.90;;;;;;5051931;28;20028;-67
2022/03/06 07:10:06;;;;;;;12.95;4.13;;;-2.10;99.90;;;;;;5052105;28;20033;-67
2022/03/06 07:12:41;;;;;;;8.85;3.80;;;-1.90;99.90;;;;;;5039852;28;20025;-67
2022/03/06 07:15:07;;;;;;;11.32;5.63;;;-1.80;99.90;;;;;;5044626;28;20486;-66
2022/03/06 07:17:33;;;;;;;10.05;4.05;;;-1.80;99.90;;;;;;5046503;28;20071;-66
2022/03/06 07:19:58;;;;;;;7.07;3.88;;;-1.70;99.90;;;;;;5051693;28;20056;-67
2022/03/06 07:22:24;;;;;;;13.15;3.95;;;-1.70;99.90;;;;;;5044740;28;20009;-67
2022/03/06 07:24:49;;;;;;;9.40;3.80;;;-1.60;99.90;;;;;;5041029;28;20037;-67
2022/03/06 07:27:15;;;;;;;15.52;4.32;;;-1.60;99.90;;;;;;5038606;28;20031;-67
2022/03/06 07:29:40;;;;;;;10.48;3.58;;;-1.50;99.90;;;;;;5042767;28;20136;-67
2022/03/06 07:32:06;;;;;;;18.25;5.70;;;-1.40;99.90;;;;;;5047267;28;20072;-67
2022/03/06 07:34:32;;;;;;;10.55;4.43;;;-1.40;99.90;;;;;;5040438;28;20029;-66
2022/03/06 07:36:58;;;;;;;11.57;4.85;;;-1.20;99.90;;;;;;5049915;28;20060;-66
2022/03/06 07:39:23;;;;;;;10.70;4.47;;;-1.10;99.90;;;;;;5041148;28;20033;-66
2022/03/06 07:41:49;;;;;;;27.13;4.80;;;-1.00;99.90;;;;;;5050236;28;20037;-66
2022/03/06 07:44:14;;;;;;;12.30;3.92;;;-0.80;99.90;;;;;;5043372;28;20036;-66
2022/03/06 07:46:41;;;;;;;13.75;4.40;;;-0.70;99.90;;;;;;5050572;28;20028;-66
2022/03/06 07:49:07;;;;;;;14.82;6.47;;;-0.40;99.90;;;;;;5044664;28;20031;-66
2022/03/06 07:51:32;;;;;;;12.57;5.22;;;-0.20;99.90;;;;;;5038673;28;20085;-67
2022/03/06 07:53:58;;;;;;;11.65;6.05;;;0.30;99.90;;;;;;5047267;28;20032;-66
2022/03/06 07:56:23;;;;;;;14.50;5.75;;;0.20;99.90;;;;;;5043353;28;20422;-66
2022/03/06 07:58:49;;;;;;;16.58;6.72;;;0.40;99.90;;;;;;5042805;28;20037;-68
2022/03/06 08:01:15;;;;;;;11.70;5.80;;;0.50;99.90;;;;;;5040373;28;20563;-67
2022/03/06 08:03:40;;;;;;;9.18;3.65;;;0.40;99.90;;;;;;5042051;28;20060;-68
2022/03/06 08:06:06;;;;;;;11.48;5.57;;;0.40;99.90;;;;;;5041640;28;20028;-67
2022/03/06 08:08:31;;;;;;;15.95;5.32;;;0.60;99.90;;;;;;5040549;28;20025;-67
2022/03/06 08:10:57;;;;;;;20.58;6.38;;;0.70;99.90;;;;;;5041569;28;20032;-67
2022/03/06 08:13:22;;;;;;;14.13;4.40;;;0.90;99.90;;;;;;5038122;28;20052;-67
2022/03/06 08:15:48;;;;;;;12.93;4.22;;;0.80;99.90;;;;;;5041438;28;20405;-67
2022/03/06 08:18:14;;;;;;;13.70;6.13;;;1.10;99.90;;;;;;5043032;28;20025;-67
2022/03/06 08:20:39;;;;;;;9.85;3.67;;;1.30;99.90;;;;;;5045409;28;20116;-67
2022/03/06 08:23:05;;;;;;;10.75;4.13;;;1.20;99.90;;;;;;5038426;28;20032;-67
2022/03/06 08:25:30;;;;;;;19.90;6.20;;;1.90;99.90;;;;;;5039893;28;20033;-67
2022/03/06 08:27:56;;;;;;;9.15;3.97;;;1.50;99.90;;;;;;5041942;28;20028;-67
2022/03/06 08:30:22;;;;;;;19.50;6.43;;;1.60;99.90;;;;;;5044829;28;20049;-67
2022/03/06 08:32:47;;;;;;;13.35;4.20;;;1.70;99.90;;;;;;5043835;28;20020;-67
2022/03/06 08:35:13;;;;;;;16.40;5.25;;;1.70;99.90;;;;;;5039829;28;20043;-67
2022/03/06 08:37:39;;;;;;;15.65;5.25;;;2.30;99.90;;;;;;5034366;28;20555;-67
2022/03/06 08:40:05;;;;;;;12.65;5.55;;;1.90;99.90;;;;;;5052327;28;20024;-68
2022/03/06 08:42:31;;;;;;;13.05;4.15;;;2.20;99.90;;;;;;5043699;28;20056;-68
2022/03/06 08:44:57;;;;;;;11.57;5.35;;;2.50;99.90;;;;;;5050671;28;20024;-69
2022/03/06 08:47:23;;;;;;;13.45;4.47;;;2.80;99.90;;;;;;5045875;28;20035;-68
2022/03/06 08:49:48;;;;;;;10.18;3.45;;;3.40;99.90;;;;;;5037213;28;20026;-67
2022/03/06 08:52:14;;;;;;;9.50;3.95;;;4.30;99.90;;;;;;5042613;28;20071;-68
2022/03/06 08:54:39;;;;;;;11.52;4.30;;;4.40;99.90;;;;;;5040595;28;20040;-68
2022/03/06 08:57:05;;;;;;;18.90;6.20;;;4.40;99.90;;;;;;5043641;28;20109;-67
2022/03/06 08:59:31;;;;;;;11.18;4.32;;;4.00;99.90;;;;;;5035059;28;20029;-68
2022/03/06 09:01:57;;;;;;;9.73;4.00;;;4.30;99.90;;;;;;5046020;28;20485;-67
2022/03/06 09:04:24;;;;;;;16.48;6.10;;;4.80;99.90;;;;;;5041010;28;20374;-67
2022/03/06 09:06:50;;;;;;;22.00;7.70;;;4.20;99.90;;;;;;5035743;28;20037;-67
2022/03/06 09:09:15;;;;;;;11.32;4.50;;;4.70;99.90;;;;;;5041184;28;20021;-68
2022/03/06 09:11:41;;;;;;;12.20;4.40;;;4.90;99.90;;;;;;5043151;28;20102;-67
2022/03/06 09:14:07;;;;;;;19.15;6.60;;;4.60;99.90;;;;;;5041910;28;20043;-67
2022/03/06 09:16:33;;;;;;;14.77;4.45;;;6.30;99.90;;;;;;5040975;28;20424;-68
2022/03/06 09:18:59;;;;;;;12.15;4.15;;;7.30;99.90;;;;;;5044081;28;20029;-67
2022/03/06 09:21:27;;;;;;;14.75;5.05;;;7.50;99.90;;;;;;5045937;28;20029;-67
2022/03/06 09:23:53;;;;;;;13.32;4.63;;;7.00;99.90;;;;;;5037812;28;20075;-67
2022/03/06 09:26:18;;;;;;;14.65;5.43;;;8.40;99.90;;;;;;5040269;28;20017;-67
2022/03/06 09:28:44;;;;;;;16.50;5.40;;;7.30;99.90;;;;;;5041087;28;20032;-67
2022/03/06 09:31:09;;;;;;;12.70;4.38;;;7.60;99.90;;;;;;5040576;28;20021;-67
2022/03/06 09:33:35;;;;;;;11.10;4.53;;;7.50;99.90;;;;;;5041804;28;20092;-67
2022/03/06 09:36:01;;;;;;;12.77;4.88;;;8.10;99.80;;;;;;5045273;28;20041;-67
2022/03/06 09:38:28;;;;;;;15.90;5.95;;;7.70;99.90;;;;;;5044413;28;20017;-67
2022/03/06 09:40:54;;;;;;;17.02;5.50;;;8.40;99.20;;;;;;5042592;28;20032;-67
2022/03/06 09:43:20;;;;;;;13.85;4.60;;;7.20;99.90;;;;;;5039689;28;20724;-67
2022/03/06 09:45:47;;;;;;;11.52;4.32;;;8.40;99.70;;;;;;5033674;28;20029;-67
2022/03/06 09:48:16;;;;;;;15.77;4.75;;;7.70;99.90;;;;;;5042571;28;20060;-67
2022/03/06 09:50:43;;;;;;;11.25;4.57;;;7.80;98.70;;;;;;5034136;28;20029;-67
2022/03/06 09:53:09;;;;;;;13.07;5.20;;;6.50;99.90;;;;;;5033005;28;20112;-67
2022/03/06 09:55:35;;;;;;;19.77;6.88;;;6.40;99.90;;;;;;5029890;28;20553;-67
2022/03/06 09:58:01;;;;;;;17.15;5.38;;;6.00;99.90;;;;;;5035754;28;20052;-67
2022/03/06 10:00:26;;;;;;;18.02;6.00;;;6.20;99.90;;;;;;5031440;28;20034;-67
2022/03/06 10:02:58;;;;;;;13.98;5.10;;;5.90;99.90;;;;;;5039290;28;20036;-67
2022/03/06 10:05:32;;;;;;;14.23;5.47;;;7.00;99.90;;;;;;5044400;28;20064;-67
2022/03/06 10:08:23;;;;;;;13.15;4.90;;;6.60;99.90;;;;;;5037035;28;20021;-67
2022/03/06 10:11:01;;;;;;;10.68;4.22;;;6.80;99.90;;;;;;5040533;28;20090;-67
2022/03/06 10:13:33;;;;;;;11.77;4.45;;;8.00;99.10;;;;;;5035883;28;20048;-67
2022/03/06 10:16:02;;;;;;;12.45;4.68;;;7.10;99.10;;;;;;5056192;28;20156;-67
2022/03/06 10:18:33;;;;;;;12.90;4.90;;;7.90;99.40;;;;;;5038635;28;20030;-67
2022/03/06 10:21:09;;;;;;;11.90;4.47;;;8.60;97.90;;;;;;5041581;28;20476;-67
2022/03/06 10:23:35;;;;;;;11.93;3.83;;;9.60;96.40;;;;;;5042960;28;20029;-65
2022/03/06 10:26:22;;;;;;;16.17;5.60;;;11.30;95.20;;;;;;5039595;28;20036;-67
2022/03/06 10:29:11;;;;;;;20.40;6.53;;;9.00;94.80;;;;;;5043448;28;20493;-67
2022/03/06 10:31:37;;;;;;;15.75;6.30;;;7.70;96.20;;;;;;5039423;28;20033;-67
2022/03/06 10:34:33;;;;;;;16.08;5.75;;;7.80;96.50;;;;;;5046077;28;20387;-67
2022/03/06 10:37:01;;;;;;;9.63;4.25;;;9.00;94.80;;;;;;5036064;28;20025;-65
2022/03/06 10:39:29;;;;;;;10.55;4.20;;;9.80;91.60;;;;;;5041011;28;20025;-66
2022/03/06 10:41:56;;;;;;;10.52;3.90;;;9.50;93.30;;;;;;5045122;28;20037;-66
2022/03/06 10:44:40;;;;;;;8.88;3.38;;;8.80;94.30;;;;;;5041873;28;20420;-66
2022/03/06 10:47:06;;;;;;;14.57;5.55;;;10.20;92.30;;;;;;5027412;28;20120;-66
2022/03/06 10:49:33;;;;;;;10.68;4.05;;;8.50;90.90;;;;;;5036330;28;20035;-66
2022/03/06 10:52:19;;;;;;;11.90;3.92;;;8.70;92.10;;;;;;5036695;28;20056;-66
2022/03/06 10:54:53;;;;;;;9.98;4.30;;;10.30;90.80;;;;;;5033078;28;20623;-66
2022/03/06 10:57:20;;;;;;;12.07;4.13;;;10.30;86.10;;;;;;5035183;28;20028;-66
2022/03/06 10:59:47;;;;;;;13.77;3.95;;;10.30;86.40;;;;;;5040091;28;20036;-66
2022/03/06 11:02:13;;;;;;;10.80;4.05;;;10.30;88.90;;;;;;5037254;28;20060;-66
2022/03/06 11:04:39;;;;;;;14.18;5.63;;;9.50;88.10;;;;;;5033958;28;20029;-66
2022/03/06 11:07:05;;;;;;;15.10;4.75;;;9.10;87.00;;;;;;5034998;28;20037;-66
2022/03/06 11:09:32;;;;;;;13.70;4.70;;;8.50;89.00;;;;;;5039434;28;20039;-66
2022/03/06 11:11:58;;;;;;;15.80;5.60;;;9.80;88.20;;;;;;5031305;28;20238;-66
2022/03/06 11:14:24;;;;;;;11.48;4.55;;;9.80;84.70;;;;;;5038298;28;20135;-66
2022/03/06 11:16:50;;;;;;;10.30;3.88;;;10.30;84.50;;;;;;5040459;28;20039;-64
2022/03/06 11:19:15;;;;;;;10.98;4.13;;;11.50;80.60;;;;;;5038042;28;20029;-66
2022/03/06 11:21:44;;;;;;;12.65;5.13;;;10.30;86.00;;;;;;5031584;28;20056;-66
2022/03/06 11:24:20;;;;;;;12.80;4.95;;;10.30;81.60;;;;;;5039022;28;20523;-66
2022/03/06 11:26:48;;;;;;;13.93;4.45;;;10.00;80.40;;;;;;5037689;28;20051;-66
2022/03/06 11:29:39;;;;;;;14.70;4.80;;;10.50;82.50;;;;;;5030860;28;20041;-66
2022/03/06 11:32:07;;;;;;;11.45;4.03;;;10.10;78.60;;;;;;5033699;28;20120;-65
2022/03/06 11:34:35;;;;;;;13.73;4.15;;;9.10;81.10;;;;;;5035570;28;20044;-66
2022/03/06 11:37:10;;;;;;;11.32;3.60;;;9.10;81.30;;;;;;5035573;28;20119;-66
2022/03/06 11:39:35;;;;;;;11.43;4.30;;;9.60;83.90;;;;;;5030698;28;20111;-65
2022/03/06 11:42:04;;;;;;;8.32;3.78;;;8.70;83.30;;;;;;5032795;28;20723;-65
2022/03/06 11:44:48;;;;;;;13.68;4.75;;;9.10;83.60;;;;;;5034775;28;20025;-65
2022/03/06 11:47:18;;;;;;;10.85;4.43;;;9.00;82.40;;;;;;5032670;28;20485;-65
2022/03/06 11:49:55;;;;;;;11.48;4.82;;;8.50;84.70;;;;;;5030175;28;20022;-65
2022/03/06 11:52:25;;;;;;;10.80;4.20;;;8.30;86.20;;;;;;5034601;28;20509;-65
2022/03/06 11:54:51;;;;;;;14.65;4.93;;;9.20;85.40;;;;;;5025259;28;20240;-65
2022/03/06 11:57:38;;;;;;;17.95;5.22;;;9.40;83.60;;;;;;5032873;28;20384;-65
2022/03/06 12:00:16;;;;;;;14.13;4.68;;;8.90;85.90;;;;;;5038181;28;20057;-65
2022/03/06 12:02:53;;;;;;;17.17;5.05;;;8.20;87.40;;;;;;5039205;28;20126;-65
2022/03/06 12:05:43;;;;;;;12.95;5.20;;;8.40;87.00;;;;;;5036304;28;20024;-65
2022/03/06 12:08:13;;;;;;;12.93;4.65;;;8.70;83.20;;;;;;5039826;28;20550;-65
2022/03/06 12:10:40;;;;;;;12.07;5.17;;;8.30;85.40;;;;;;5042114;28;20029;-65
2022/03/06 12:13:17;;;;;;;12.00;5.28;;;8.30;84.70;;;;;;5038028;28;20029;-65
2022/03/06 12:16:04;;;;;;;22.73;6.47;;;7.50;86.30;;;;;;5056291;28;20021;-65
2022/03/06 12:18:30;;;;;;;15.25;6.35;;;7.20;85.90;;;;;;5039109;28;20472;-65
2022/03/06 12:20:56;;;;;;;13.88;5.03;;;6.80;85.60;;;;;;5041037;28;20485;-65
2022/03/06 12:23:25;;;;;;;15.25;6.25;;;6.80;87.00;;;;;;5043024;28;20021;-65
2022/03/06 12:25:53;;;;;;;13.20;5.75;;;6.80;85.60;;;;;;5046157;28;20073;-65
2022/03/06 12:28:20;;;;;;;10.52;3.72;;;6.90;88.20;;;;;;5038055;28;20032;-65
2022/03/06 12:30:46;;;;;;;17.00;5.30;;;7.30;88.90;;;;;;5039953;28;20127;-65
2022/03/06 12:33:44;;;;;;;18.33;5.63;;;7.10;85.40;;;;;;5038184;28;20378;-65
2022/03/06 12:36:11;;;;;;;18.13;5.93;;;6.80;86.60;;;;;;5007337;28;20037;-65
2022/03/06 12:38:37;;;;;;;14.93;5.68;;;6.80;87.10;;;;;;5037661;28;20083;-65
2022/03/06 12:41:04;;;;;;;16.88;5.20;;;7.00;87.40;;;;;;5036905;28;20040;-65
2022/03/06 12:43:31;;;;;;;15.00;5.13;;;7.20;85.90;;;;;;5040631;28;20079;-65